sensor_id;sensor_type;location;lat;lon;timestamp;temperature;humidity
44037;DHT22;62488;-37.670;-63.532;2023-04-09T00:01:36;21.60;99.90
44037;DHT22;62488;-37.670;-63.532;2023-04-09T00:04:03;21.50;99.90
44037;DHT22;62488;-37.670;-63.532;2023-04-09T00:06:31;21.40;99.90
44037;DHT22;62488;-37.670;-63.532;2023-04-09T00:08:58;21.40;99.90
44037;DHT22;62488;-37.670;-63.532;2023-04-09T00:11:24;21.40;99.90
44037;DHT22;62488;-37.670;-63.532;2023-04-09T00:13:52;21.30;99.90
44037;DHT22;62488;-37.670;-63.532;2023-04-09T00:16:20;21.30;99.90
44037;DHT22;62488;-37.670;-63.532;2023-04-09T00:18:47;21.40;99.90
44037;DHT22;62488;-37.670;-63.532;2023-04-09T00:21:14;21.30;99.90
44037;DHT22;62488;-37.670;-63.532;2023-04-09T00:23:44;21.30;99.90
44037;DHT22;62488;-37.670;-63.532;2023-04-09T00:26:10;21.30;99.90
44037;DHT22;62488;-37.670;-63.532;2023-04-09T00:28:38;21.30;99.90
44037;DHT22;62488;-37.670;-63.532;2023-04-09T00:31:05;21.30;99.90
44037;DHT22;62488;-37.670;-63.532;2023-04-09T00:33:32;21.30;99.90
44037;DHT22;62488;-37.670;-63.532;2023-04-09T00:36:01;21.20;99.90
44037;DHT22;62488;-37.670;-63.532;2023-04-09T00:38:28;21.10;99.90
44037;DHT22;62488;-37.670;-63.532;2023-04-09T00:40:55;21.00;99.90
44037;DHT22;62488;-37.670;-63.532;2023-04-09T00:43:22;20.90;99.90
44037;DHT22;62488;-37.670;-63.532;2023-04-09T00:45:50;20.90;99.90
44037;DHT22;62488;-37.670;-63.532;2023-04-09T00:48:17;20.80;99.90
44037;DHT22;62488;-37.670;-63.532;2023-04-09T00:50:44;20.90;99.90
44037;DHT22;62488;-37.670;-63.532;2023-04-09T00:53:12;20.80;99.90
44037;DHT22;62488;-37.670;-63.532;2023-04-09T00:55:40;20.80;99.90
44037;DHT22;62488;-37.670;-63.532;2023-04-09T00:58:08;20.80;99.90
44037;DHT22;62488;-37.670;-63.532;2023-04-09T01:00:35;20.80;99.90
44037;DHT22;62488;-37.670;-63.532;2023-04-09T01:03:02;20.80;99.90
44037;DHT22;62488;-37.670;-63.532;2023-04-09T01:11:28;21.10;99.90
44037;DHT22;62488;-37.670;-63.532;2023-04-09T01:14:23;21.10;99.90
44037;DHT22;62488;-37.670;-63.532;2023-04-09T01:17:02;21.10;99.90
44037;DHT22;62488;-37.670;-63.532;2023-04-09T01:21:58;21.10;99.90
44037;DHT22;62488;-37.670;-63.532;2023-04-09T01:31:10;21.10;99.90
44037;DHT22;62488;-37.670;-63.532;2023-04-09T01:33:42;21.00;99.90
44037;DHT22;62488;-37.670;-63.532;2023-04-09T01:36:10;21.00;99.90
44037;DHT22;62488;-37.670;-63.532;2023-04-09T01:38:42;21.00;99.90
44037;DHT22;62488;-37.670;-63.532;2023-04-09T01:41:19;20.90;99.90
44037;DHT22;62488;-37.670;-63.532;2023-04-09T01:43:51;20.90;99.90
44037;DHT22;62488;-37.670;-63.532;2023-04-09T01:46:20;20.80;99.90
44037;DHT22;62488;-37.670;-63.532;2023-04-09T01:48:48;20.80;99.90
44037;DHT22;62488;-37.670;-63.532;2023-04-09T01:51:16;20.70;99.90
44037;DHT22;62488;-37.670;-63.532;2023-04-09T01:53:43;20.70;99.90
44037;DHT22;62488;-37.670;-63.532;2023-04-09T01:56:10;20.60;99.90
44037;DHT22;62488;-37.670;-63.532;2023-04-09T01:58:37;20.60;99.90
44037;DHT22;62488;-37.670;-63.532;2023-04-09T02:01:13;20.50;99.90
44037;DHT22;62488;-37.670;-63.532;2023-04-09T02:03:55;20.50;99.90
44037;DHT22;62488;-37.670;-63.532;2023-04-09T02:09:07;20.40;99.90
44037;DHT22;62488;-37.670;-63.532;2023-04-09T02:11:38;20.40;99.90
44037;DHT22;62488;-37.670;-63.532;2023-04-09T02:14:07;20.30;99.90
44037;DHT22;62488;-37.670;-63.532;2023-04-09T02:16:37;20.20;99.90
44037;DHT22;62488;-37.670;-63.532;2023-04-09T02:19:04;20.20;99.90
44037;DHT22;62488;-37.670;-63.532;2023-04-09T02:21:31;20.10;99.90
44037;DHT22;62488;-37.670;-63.532;2023-04-09T02:23:58;20.10;99.90
44037;DHT22;62488;-37.670;-63.532;2023-04-09T02:26:25;20.00;99.90
44037;DHT22;62488;-37.670;-63.532;2023-04-09T02:28:52;19.90;99.90
44037;DHT22;62488;-37.670;-63.532;2023-04-09T02:31:19;19.90;99.90
44037;DHT22;62488;-37.670;-63.532;2023-04-09T02:33:46;19.80;99.90
44037;DHT22;62488;-37.670;-63.532;2023-04-09T02:36:13;19.70;99.90
44037;DHT22;62488;-37.670;-63.532;2023-04-09T02:38:41;19.70;99.90
44037;DHT22;62488;-37.670;-63.532;2023-04-09T02:41:08;19.70;99.90
44037;DHT22;62488;-37.670;-63.532;2023-04-09T02:43:36;19.70;99.90
44037;DHT22;62488;-37.670;-63.532;2023-04-09T02:46:03;19.70;99.90
44037;DHT22;62488;-37.670;-63.532;2023-04-09T02:48:30;19.60;99.90
44037;DHT22;62488;-37.670;-63.532;2023-04-09T02:50:58;19.60;99.90
44037;DHT22;62488;-37.670;-63.532;2023-04-09T02:53:25;19.60;99.90
44037;DHT22;62488;-37.670;-63.532;2023-04-09T02:55:52;19.60;99.90
44037;DHT22;62488;-37.670;-63.532;2023-04-09T02:58:19;19.50;99.90
44037;DHT22;62488;-37.670;-63.532;2023-04-09T03:00:46;19.50;99.90
44037;DHT22;62488;-37.670;-63.532;2023-04-09T03:03:13;19.40;99.90
44037;DHT22;62488;-37.670;-63.532;2023-04-09T03:05:40;19.40;99.90
44037;DHT22;62488;-37.670;-63.532;2023-04-09T03:08:09;19.40;99.90
44037;DHT22;62488;-37.670;-63.532;2023-04-09T03:10:36;19.40;99.90
44037;DHT22;62488;-37.670;-63.532;2023-04-09T03:13:03;19.40;99.90
44037;DHT22;62488;-37.670;-63.532;2023-04-09T03:15:30;19.40;99.90
44037;DHT22;62488;-37.670;-63.532;2023-04-09T03:17:57;19.30;99.90
44037;DHT22;62488;-37.670;-63.532;2023-04-09T03:20:24;19.30;99.90
44037;DHT22;62488;-37.670;-63.532;2023-04-09T03:22:51;19.20;99.90
44037;DHT22;62488;-37.670;-63.532;2023-04-09T03:25:18;19.20;99.90
44037;DHT22;62488;-37.670;-63.532;2023-04-09T03:27:46;19.20;99.90
44037;DHT22;62488;-37.670;-63.532;2023-04-09T03:30:13;19.20;99.90
44037;DHT22;62488;-37.670;-63.532;2023-04-09T03:32:40;19.20;99.90
44037;DHT22;62488;-37.670;-63.532;2023-04-09T03:35:08;19.20;99.90
44037;DHT22;62488;-37.670;-63.532;2023-04-09T03:37:37;19.20;99.90
44037;DHT22;62488;-37.670;-63.532;2023-04-09T03:40:04;19.20;99.90
44037;DHT22;62488;-37.670;-63.532;2023-04-09T03:42:32;19.20;99.90
44037;DHT22;62488;-37.670;-63.532;2023-04-09T03:45:00;19.30;99.90
44037;DHT22;62488;-37.670;-63.532;2023-04-09T03:47:27;19.30;99.90
44037;DHT22;62488;-37.670;-63.532;2023-04-09T03:49:54;19.30;99.90
44037;DHT22;62488;-37.670;-63.532;2023-04-09T03:52:21;19.30;99.90
44037;DHT22;62488;-37.670;-63.532;2023-04-09T03:54:48;19.30;99.90
44037;DHT22;62488;-37.670;-63.532;2023-04-09T03:57:15;19.30;99.90
44037;DHT22;62488;-37.670;-63.532;2023-04-09T03:59:42;19.20;99.90
44037;DHT22;62488;-37.670;-63.532;2023-04-09T04:02:10;19.20;99.90
44037;DHT22;62488;-37.670;-63.532;2023-04-09T04:04:37;19.20;99.90
44037;DHT22;62488;-37.670;-63.532;2023-04-09T04:07:04;19.10;99.90
44037;DHT22;62488;-37.670;-63.532;2023-04-09T04:09:31;19.10;99.90
44037;DHT22;62488;-37.670;-63.532;2023-04-09T04:11:59;19.10;99.90
44037;DHT22;62488;-37.670;-63.532;2023-04-09T04:14:27;19.00;99.90
44037;DHT22;62488;-37.670;-63.532;2023-04-09T04:16:54;19.00;99.90
44037;DHT22;62488;-37.670;-63.532;2023-04-09T04:19:21;18.90;99.90
44037;DHT22;62488;-37.670;-63.532;2023-04-09T04:21:48;18.90;99.90
44037;DHT22;62488;-37.670;-63.532;2023-04-09T04:24:15;18.80;99.90
44037;DHT22;62488;-37.670;-63.532;2023-04-09T04:26:42;18.80;99.90
44037;DHT22;62488;-37.670;-63.532;2023-04-09T04:29:09;18.80;99.90
44037;DHT22;62488;-37.670;-63.532;2023-04-09T04:31:36;18.70;99.90
44037;DHT22;62488;-37.670;-63.532;2023-04-09T04:34:03;18.70;99.90
44037;DHT22;62488;-37.670;-63.532;2023-04-09T04:36:30;18.70;99.90
44037;DHT22;62488;-37.670;-63.532;2023-04-09T04:38:57;18.60;99.90
44037;DHT22;62488;-37.670;-63.532;2023-04-09T04:41:24;18.60;99.90
44037;DHT22;62488;-37.670;-63.532;2023-04-09T04:43:51;18.60;99.90
44037;DHT22;62488;-37.670;-63.532;2023-04-09T04:46:18;18.60;99.90
44037;DHT22;62488;-37.670;-63.532;2023-04-09T04:48:45;18.50;99.90
44037;DHT22;62488;-37.670;-63.532;2023-04-09T04:51:12;18.50;99.90
44037;DHT22;62488;-37.670;-63.532;2023-04-09T04:53:39;18.50;99.90
44037;DHT22;62488;-37.670;-63.532;2023-04-09T04:56:11;18.40;99.90
44037;DHT22;62488;-37.670;-63.532;2023-04-09T04:58:38;18.40;99.90
44037;DHT22;62488;-37.670;-63.532;2023-04-09T05:01:05;18.30;99.90
44037;DHT22;62488;-37.670;-63.532;2023-04-09T05:03:32;18.40;99.90
44037;DHT22;62488;-37.670;-63.532;2023-04-09T05:05:59;18.40;99.90
44037;DHT22;62488;-37.670;-63.532;2023-04-09T05:08:26;18.40;99.90
44037;DHT22;62488;-37.670;-63.532;2023-04-09T05:10:53;18.30;99.90
44037;DHT22;62488;-37.670;-63.532;2023-04-09T05:13:22;18.30;99.90
44037;DHT22;62488;-37.670;-63.532;2023-04-09T05:15:49;18.30;99.90
44037;DHT22;62488;-37.670;-63.532;2023-04-09T05:18:16;18.30;99.90
44037;DHT22;62488;-37.670;-63.532;2023-04-09T05:20:43;18.30;99.90
44037;DHT22;62488;-37.670;-63.532;2023-04-09T05:23:10;18.20;99.90
44037;DHT22;62488;-37.670;-63.532;2023-04-09T05:25:38;18.10;99.90
44037;DHT22;62488;-37.670;-63.532;2023-04-09T05:28:05;18.20;99.90
44037;DHT22;62488;-37.670;-63.532;2023-04-09T05:30:32;18.10;99.90
44037;DHT22;62488;-37.670;-63.532;2023-04-09T05:32:59;18.10;99.90
44037;DHT22;62488;-37.670;-63.532;2023-04-09T05:35:26;18.00;99.90
44037;DHT22;62488;-37.670;-63.532;2023-04-09T05:37:53;18.00;99.90
44037;DHT22;62488;-37.670;-63.532;2023-04-09T05:40:20;18.00;99.90
44037;DHT22;62488;-37.670;-63.532;2023-04-09T05:42:47;18.00;99.90
44037;DHT22;62488;-37.670;-63.532;2023-04-09T05:45:14;18.00;99.90
44037;DHT22;62488;-37.670;-63.532;2023-04-09T05:47:41;18.00;99.90
44037;DHT22;62488;-37.670;-63.532;2023-04-09T05:50:09;18.10;99.90
44037;DHT22;62488;-37.670;-63.532;2023-04-09T05:52:37;18.10;99.90
44037;DHT22;62488;-37.670;-63.532;2023-04-09T05:55:04;18.20;99.90
44037;DHT22;62488;-37.670;-63.532;2023-04-09T05:57:31;18.20;99.90
44037;DHT22;62488;-37.670;-63.532;2023-04-09T05:59:59;18.20;99.90
44037;DHT22;62488;-37.670;-63.532;2023-04-09T06:02:26;18.20;99.90
44037;DHT22;62488;-37.670;-63.532;2023-04-09T06:04:53;18.30;99.90
44037;DHT22;62488;-37.670;-63.532;2023-04-09T06:07:21;18.30;99.90
44037;DHT22;62488;-37.670;-63.532;2023-04-09T06:09:48;18.30;99.90
44037;DHT22;62488;-37.670;-63.532;2023-04-09T06:12:15;18.30;99.90
44037;DHT22;62488;-37.670;-63.532;2023-04-09T06:14:42;18.20;99.90
44037;DHT22;62488;-37.670;-63.532;2023-04-09T06:17:09;18.30;99.90
44037;DHT22;62488;-37.670;-63.532;2023-04-09T06:19:36;18.20;99.90
44037;DHT22;62488;-37.670;-63.532;2023-04-09T06:22:10;18.20;99.90
44037;DHT22;62488;-37.670;-63.532;2023-04-09T06:24:37;18.10;99.90
44037;DHT22;62488;-37.670;-63.532;2023-04-09T06:27:04;18.10;99.90
44037;DHT22;62488;-37.670;-63.532;2023-04-09T06:29:31;18.10;99.90
44037;DHT22;62488;-37.670;-63.532;2023-04-09T06:31:59;18.10;99.90
44037;DHT22;62488;-37.670;-63.532;2023-04-09T06:34:27;18.00;99.90
44037;DHT22;62488;-37.670;-63.532;2023-04-09T06:36:54;18.00;99.90
44037;DHT22;62488;-37.670;-63.532;2023-04-09T06:39:21;18.00;99.90
44037;DHT22;62488;-37.670;-63.532;2023-04-09T06:41:48;17.90;99.90
44037;DHT22;62488;-37.670;-63.532;2023-04-09T06:44:15;18.00;99.90
44037;DHT22;62488;-37.670;-63.532;2023-04-09T06:46:42;17.90;99.90
44037;DHT22;62488;-37.670;-63.532;2023-04-09T06:49:09;17.90;99.90
44037;DHT22;62488;-37.670;-63.532;2023-04-09T06:51:36;17.90;99.90
44037;DHT22;62488;-37.670;-63.532;2023-04-09T06:54:03;17.80;99.90
44037;DHT22;62488;-37.670;-63.532;2023-04-09T06:56:30;17.80;99.90
44037;DHT22;62488;-37.670;-63.532;2023-04-09T06:58:57;17.80;99.90
44037;DHT22;62488;-37.670;-63.532;2023-04-09T07:01:25;17.70;99.90
44037;DHT22;62488;-37.670;-63.532;2023-04-09T07:03:52;17.70;99.90
44037;DHT22;62488;-37.670;-63.532;2023-04-09T07:06:19;17.70;99.90
44037;DHT22;62488;-37.670;-63.532;2023-04-09T07:08:46;17.70;99.90
44037;DHT22;62488;-37.670;-63.532;2023-04-09T07:11:13;17.70;99.90
44037;DHT22;62488;-37.670;-63.532;2023-04-09T07:13:42;17.70;99.90
44037;DHT22;62488;-37.670;-63.532;2023-04-09T07:16:10;17.60;99.90
44037;DHT22;62488;-37.670;-63.532;2023-04-09T07:18:37;17.60;99.90
44037;DHT22;62488;-37.670;-63.532;2023-04-09T07:21:04;17.60;99.90
44037;DHT22;62488;-37.670;-63.532;2023-04-09T07:23:34;17.60;99.90
44037;DHT22;62488;-37.670;-63.532;2023-04-09T07:26:05;17.50;99.90
44037;DHT22;62488;-37.670;-63.532;2023-04-09T07:28:33;17.50;99.90
44037;DHT22;62488;-37.670;-63.532;2023-04-09T07:31:00;17.50;99.90
44037;DHT22;62488;-37.670;-63.532;2023-04-09T07:33:30;17.50;99.90
44037;DHT22;62488;-37.670;-63.532;2023-04-09T07:35:57;17.50;99.90
44037;DHT22;62488;-37.670;-63.532;2023-04-09T07:38:24;17.40;99.90
44037;DHT22;62488;-37.670;-63.532;2023-04-09T07:40:53;17.40;99.90
44037;DHT22;62488;-37.670;-63.532;2023-04-09T07:43:20;17.40;99.90
44037;DHT22;62488;-37.670;-63.532;2023-04-09T07:45:50;17.30;99.90
44037;DHT22;62488;-37.670;-63.532;2023-04-09T07:48:17;17.30;99.90
44037;DHT22;62488;-37.670;-63.532;2023-04-09T07:50:44;17.30;99.90
44037;DHT22;62488;-37.670;-63.532;2023-04-09T07:53:11;17.20;99.90
44037;DHT22;62488;-37.670;-63.532;2023-04-09T07:55:40;17.20;99.90
44037;DHT22;62488;-37.670;-63.532;2023-04-09T07:58:07;17.10;99.90
44037;DHT22;62488;-37.670;-63.532;2023-04-09T08:00:34;17.20;99.90
44037;DHT22;62488;-37.670;-63.532;2023-04-09T08:03:01;17.10;99.90
44037;DHT22;62488;-37.670;-63.532;2023-04-09T08:05:29;17.10;99.90
44037;DHT22;62488;-37.670;-63.532;2023-04-09T08:07:56;17.10;99.90
44037;DHT22;62488;-37.670;-63.532;2023-04-09T08:10:23;17.10;99.90
44037;DHT22;62488;-37.670;-63.532;2023-04-09T08:12:50;17.00;99.90
44037;DHT22;62488;-37.670;-63.532;2023-04-09T08:15:17;17.00;99.90
44037;DHT22;62488;-37.670;-63.532;2023-04-09T08:17:44;16.90;99.90
44037;DHT22;62488;-37.670;-63.532;2023-04-09T08:20:11;16.90;99.90
44037;DHT22;62488;-37.670;-63.532;2023-04-09T08:22:38;17.00;99.90
44037;DHT22;62488;-37.670;-63.532;2023-04-09T08:25:06;16.90;99.90
44037;DHT22;62488;-37.670;-63.532;2023-04-09T08:27:33;16.90;99.90
44037;DHT22;62488;-37.670;-63.532;2023-04-09T08:30:02;16.90;99.90
44037;DHT22;62488;-37.670;-63.532;2023-04-09T08:32:29;16.90;99.90
44037;DHT22;62488;-37.670;-63.532;2023-04-09T08:34:56;16.90;99.90
44037;DHT22;62488;-37.670;-63.532;2023-04-09T08:37:23;16.90;99.90
44037;DHT22;62488;-37.670;-63.532;2023-04-09T08:39:50;16.90;99.90
44037;DHT22;62488;-37.670;-63.532;2023-04-09T08:42:18;16.90;99.90
44037;DHT22;62488;-37.670;-63.532;2023-04-09T08:44:46;16.90;99.90
44037;DHT22;62488;-37.670;-63.532;2023-04-09T08:47:13;16.90;99.90
44037;DHT22;62488;-37.670;-63.532;2023-04-09T08:49:40;16.90;99.90
44037;DHT22;62488;-37.670;-63.532;2023-04-09T08:52:07;16.90;99.90
44037;DHT22;62488;-37.670;-63.532;2023-04-09T08:54:35;17.00;99.90
44037;DHT22;62488;-37.670;-63.532;2023-04-09T08:57:06;16.90;99.90
44037;DHT22;62488;-37.670;-63.532;2023-04-09T08:59:33;16.90;99.90
44037;DHT22;62488;-37.670;-63.532;2023-04-09T09:02:09;16.90;99.90
44037;DHT22;62488;-37.670;-63.532;2023-04-09T09:04:49;16.90;99.90
44037;DHT22;62488;-37.670;-63.532;2023-04-09T09:07:17;16.90;99.90
44037;DHT22;62488;-37.670;-63.532;2023-04-09T09:09:51;16.90;99.90
44037;DHT22;62488;-37.670;-63.532;2023-04-09T09:15:00;16.90;99.90
44037;DHT22;62488;-37.670;-63.532;2023-04-09T09:17:28;16.90;99.90
44037;DHT22;62488;-37.670;-63.532;2023-04-09T09:19:55;16.90;99.90
44037;DHT22;62488;-37.670;-63.532;2023-04-09T09:22:23;17.00;99.90
44037;DHT22;62488;-37.670;-63.532;2023-04-09T09:24:51;17.00;99.90
44037;DHT22;62488;-37.670;-63.532;2023-04-09T09:30:00;16.90;99.90
44037;DHT22;62488;-37.670;-63.532;2023-04-09T09:32:27;16.90;99.90
44037;DHT22;62488;-37.670;-63.532;2023-04-09T09:35:02;16.90;99.90
44037;DHT22;62488;-37.670;-63.532;2023-04-09T09:37:31;16.80;99.90
44037;DHT22;62488;-37.670;-63.532;2023-04-09T09:39:59;16.80;99.90
44037;DHT22;62488;-37.670;-63.532;2023-04-09T09:42:26;16.80;99.90
44037;DHT22;62488;-37.670;-63.532;2023-04-09T09:44:54;16.80;99.90
44037;DHT22;62488;-37.670;-63.532;2023-04-09T09:47:22;16.80;99.90
44037;DHT22;62488;-37.670;-63.532;2023-04-09T09:49:51;16.70;99.90
44037;DHT22;62488;-37.670;-63.532;2023-04-09T09:52:23;16.70;99.90
44037;DHT22;62488;-37.670;-63.532;2023-04-09T09:54:54;16.60;99.90
44037;DHT22;62488;-37.670;-63.532;2023-04-09T09:57:24;16.60;99.90
44037;DHT22;62488;-37.670;-63.532;2023-04-09T10:00:02;16.60;99.90
44037;DHT22;62488;-37.670;-63.532;2023-04-09T10:13:49;16.60;99.90
44037;DHT22;62488;-37.670;-63.532;2023-04-09T10:16:17;16.50;99.90
44037;DHT22;62488;-37.670;-63.532;2023-04-09T10:18:44;16.40;99.90
44037;DHT22;62488;-37.670;-63.532;2023-04-09T10:24:00;16.40;99.90
44037;DHT22;62488;-37.670;-63.532;2023-04-09T10:26:34;16.40;99.90
44037;DHT22;62488;-37.670;-63.532;2023-04-09T10:29:09;16.40;99.90
44037;DHT22;62488;-37.670;-63.532;2023-04-09T10:31:51;16.30;99.90
44037;DHT22;62488;-37.670;-63.532;2023-04-09T10:34:25;16.30;99.90
44037;DHT22;62488;-37.670;-63.532;2023-04-09T10:36:57;16.30;99.90
44037;DHT22;62488;-37.670;-63.532;2023-04-09T10:39:30;16.30;99.90
44037;DHT22;62488;-37.670;-63.532;2023-04-09T10:42:07;16.30;99.90
44037;DHT22;62488;-37.670;-63.532;2023-04-09T10:44:34;16.30;99.90
44037;DHT22;62488;-37.670;-63.532;2023-04-09T10:47:03;16.30;99.90
44037;DHT22;62488;-37.670;-63.532;2023-04-09T10:49:39;16.30;99.90
44037;DHT22;62488;-37.670;-63.532;2023-04-09T10:52:09;16.30;99.90
44037;DHT22;62488;-37.670;-63.532;2023-04-09T10:54:41;16.40;99.90
44037;DHT22;62488;-37.670;-63.532;2023-04-09T10:57:13;16.40;99.90
44037;DHT22;62488;-37.670;-63.532;2023-04-09T10:59:42;16.40;99.90
44037;DHT22;62488;-37.670;-63.532;2023-04-09T11:05:24;16.50;99.90
44037;DHT22;62488;-37.670;-63.532;2023-04-09T11:08:08;16.60;99.90
44037;DHT22;62488;-37.670;-63.532;2023-04-09T11:10:38;16.60;99.90
44037;DHT22;62488;-37.670;-63.532;2023-04-09T11:13:09;16.70;99.90
44037;DHT22;62488;-37.670;-63.532;2023-04-09T11:15:37;16.80;99.90
44037;DHT22;62488;-37.670;-63.532;2023-04-09T11:18:04;16.90;99.90
44037;DHT22;62488;-37.670;-63.532;2023-04-09T11:20:39;17.10;99.90
44037;DHT22;62488;-37.670;-63.532;2023-04-09T11:23:06;17.20;99.90
44037;DHT22;62488;-37.670;-63.532;2023-04-09T11:25:33;17.40;99.90
44037;DHT22;62488;-37.670;-63.532;2023-04-09T11:28:02;17.40;99.90
44037;DHT22;62488;-37.670;-63.532;2023-04-09T11:30:30;17.50;99.90
44037;DHT22;62488;-37.670;-63.532;2023-04-09T11:32:59;17.70;99.90
44037;DHT22;62488;-37.670;-63.532;2023-04-09T11:35:27;17.90;99.90
44037;DHT22;62488;-37.670;-63.532;2023-04-09T11:37:54;18.00;99.90
44037;DHT22;62488;-37.670;-63.532;2023-04-09T11:40:25;18.10;99.90
44037;DHT22;62488;-37.670;-63.532;2023-04-09T11:42:55;18.20;99.90
44037;DHT22;62488;-37.670;-63.532;2023-04-09T11:45:29;18.30;99.90
44037;DHT22;62488;-37.670;-63.532;2023-04-09T11:47:57;18.50;99.90
44037;DHT22;62488;-37.670;-63.532;2023-04-09T11:50:24;18.50;99.90
44037;DHT22;62488;-37.670;-63.532;2023-04-09T11:52:51;18.60;99.90
44037;DHT22;62488;-37.670;-63.532;2023-04-09T11:55:29;18.70;99.90
44037;DHT22;62488;-37.670;-63.532;2023-04-09T11:57:58;18.80;99.90
44037;DHT22;62488;-37.670;-63.532;2023-04-09T12:00:28;18.90;99.90
44037;DHT22;62488;-37.670;-63.532;2023-04-09T12:03:01;19.00;99.90
44037;DHT22;62488;-37.670;-63.532;2023-04-09T12:05:31;19.00;99.90
44037;DHT22;62488;-37.670;-63.532;2023-04-09T12:10:28;19.20;99.90
44037;DHT22;62488;-37.670;-63.532;2023-04-09T12:13:00;19.30;99.90
44037;DHT22;62488;-37.670;-63.532;2023-04-09T12:15:31;19.40;99.90
44037;DHT22;62488;-37.670;-63.532;2023-04-09T12:17:59;19.60;99.90
44037;DHT22;62488;-37.670;-63.532;2023-04-09T12:23:02;19.70;99.90
44037;DHT22;62488;-37.670;-63.532;2023-04-09T12:25:34;20.00;99.90
44037;DHT22;62488;-37.670;-63.532;2023-04-09T12:28:04;20.00;99.90
44037;DHT22;62488;-37.670;-63.532;2023-04-09T12:30:32;20.30;99.90
44037;DHT22;62488;-37.670;-63.532;2023-04-09T12:33:00;20.40;99.90
44037;DHT22;62488;-37.670;-63.532;2023-04-09T12:35:27;20.50;99.90
44037;DHT22;62488;-37.670;-63.532;2023-04-09T12:37:54;20.60;99.90
44037;DHT22;62488;-37.670;-63.532;2023-04-09T12:40:21;20.70;99.90
44037;DHT22;62488;-37.670;-63.532;2023-04-09T12:42:48;21.00;99.90
44037;DHT22;62488;-37.670;-63.532;2023-04-09T12:45:17;21.10;99.90
44037;DHT22;62488;-37.670;-63.532;2023-04-09T12:47:44;21.20;99.90
44037;DHT22;62488;-37.670;-63.532;2023-04-09T12:50:13;21.20;99.90
44037;DHT22;62488;-37.670;-63.532;2023-04-09T12:52:41;21.20;99.90
44037;DHT22;62488;-37.670;-63.532;2023-04-09T12:55:09;21.20;99.90
44037;DHT22;62488;-37.670;-63.532;2023-04-09T12:57:38;21.50;99.90
44037;DHT22;62488;-37.670;-63.532;2023-04-09T13:00:06;21.60;99.90
44037;DHT22;62488;-37.670;-63.532;2023-04-09T13:02:33;21.90;99.90
44037;DHT22;62488;-37.670;-63.532;2023-04-09T13:05:00;22.10;99.90
44037;DHT22;62488;-37.670;-63.532;2023-04-09T13:07:28;22.30;99.90
44037;DHT22;62488;-37.670;-63.532;2023-04-09T13:09:55;22.10;99.90
44037;DHT22;62488;-37.670;-63.532;2023-04-09T13:12:23;22.40;99.90
44037;DHT22;62488;-37.670;-63.532;2023-04-09T13:14:52;22.30;99.90
44037;DHT22;62488;-37.670;-63.532;2023-04-09T13:17:19;22.40;99.90
44037;DHT22;62488;-37.670;-63.532;2023-04-09T13:19:46;22.60;99.90
44037;DHT22;62488;-37.670;-63.532;2023-04-09T13:22:13;22.80;99.90
44037;DHT22;62488;-37.670;-63.532;2023-04-09T13:24:40;22.80;99.90
44037;DHT22;62488;-37.670;-63.532;2023-04-09T13:27:09;22.90;99.90
44037;DHT22;62488;-37.670;-63.532;2023-04-09T13:29:37;23.30;99.90
44037;DHT22;62488;-37.670;-63.532;2023-04-09T13:32:04;23.30;99.90
44037;DHT22;62488;-37.670;-63.532;2023-04-09T13:34:38;23.70;99.90
44037;DHT22;62488;-37.670;-63.532;2023-04-09T13:37:06;23.60;99.90
44037;DHT22;62488;-37.670;-63.532;2023-04-09T13:39:33;23.80;99.90
44037;DHT22;62488;-37.670;-63.532;2023-04-09T13:42:01;23.50;99.90
44037;DHT22;62488;-37.670;-63.532;2023-04-09T13:44:28;23.90;99.90
44037;DHT22;62488;-37.670;-63.532;2023-04-09T13:46:55;24.00;99.90
44037;DHT22;62488;-37.670;-63.532;2023-04-09T13:49:23;23.80;99.90
44037;DHT22;62488;-37.670;-63.532;2023-04-09T13:51:52;24.00;99.90
44037;DHT22;62488;-37.670;-63.532;2023-04-09T13:54:21;24.00;99.90
44037;DHT22;62488;-37.670;-63.532;2023-04-09T13:56:48;24.50;99.90
44037;DHT22;62488;-37.670;-63.532;2023-04-09T13:59:16;24.80;99.90
44037;DHT22;62488;-37.670;-63.532;2023-04-09T14:01:43;24.50;99.90
44037;DHT22;62488;-37.670;-63.532;2023-04-09T14:04:10;24.80;99.90
44037;DHT22;62488;-37.670;-63.532;2023-04-09T14:06:37;24.80;99.90
44037;DHT22;62488;-37.670;-63.532;2023-04-09T14:09:05;25.00;99.90
44037;DHT22;62488;-37.670;-63.532;2023-04-09T14:11:31;25.20;99.90
44037;DHT22;62488;-37.670;-63.532;2023-04-09T14:13:59;25.30;99.90
44037;DHT22;62488;-37.670;-63.532;2023-04-09T14:16:25;25.50;99.90
44037;DHT22;62488;-37.670;-63.532;2023-04-09T14:18:55;25.50;99.90
44037;DHT22;62488;-37.670;-63.532;2023-04-09T14:21:22;25.70;99.90
44037;DHT22;62488;-37.670;-63.532;2023-04-09T14:23:49;25.60;99.90
44037;DHT22;62488;-37.670;-63.532;2023-04-09T14:26:16;25.50;99.90
44037;DHT22;62488;-37.670;-63.532;2023-04-09T14:28:44;25.80;99.90
44037;DHT22;62488;-37.670;-63.532;2023-04-09T14:31:13;26.00;99.90
44037;DHT22;62488;-37.670;-63.532;2023-04-09T14:33:40;26.00;99.90
44037;DHT22;62488;-37.670;-63.532;2023-04-09T14:36:07;25.80;99.90
44037;DHT22;62488;-37.670;-63.532;2023-04-09T14:38:36;25.60;99.90
44037;DHT22;62488;-37.670;-63.532;2023-04-09T14:41:03;26.00;99.90
44037;DHT22;62488;-37.670;-63.532;2023-04-09T14:43:31;25.90;99.90
44037;DHT22;62488;-37.670;-63.532;2023-04-09T14:45:58;26.40;99.90
44037;DHT22;62488;-37.670;-63.532;2023-04-09T14:48:26;26.50;99.90
44037;DHT22;62488;-37.670;-63.532;2023-04-09T14:50:53;26.60;99.90
44037;DHT22;62488;-37.670;-63.532;2023-04-09T14:53:20;26.80;99.90
44037;DHT22;62488;-37.670;-63.532;2023-04-09T14:55:47;26.10;99.90
44037;DHT22;62488;-37.670;-63.532;2023-04-09T14:58:14;26.00;99.90
44037;DHT22;62488;-37.670;-63.532;2023-04-09T15:00:41;26.30;99.90
44037;DHT22;62488;-37.670;-63.532;2023-04-09T15:03:10;26.80;99.90
44037;DHT22;62488;-37.670;-63.532;2023-04-09T15:05:37;27.20;99.90
44037;DHT22;62488;-37.670;-63.532;2023-04-09T15:08:04;27.30;99.90
44037;DHT22;62488;-37.670;-63.532;2023-04-09T15:10:31;27.20;99.90
44037;DHT22;62488;-37.670;-63.532;2023-04-09T15:12:58;27.20;99.90
44037;DHT22;62488;-37.670;-63.532;2023-04-09T15:15:26;27.10;99.90
44037;DHT22;62488;-37.670;-63.532;2023-04-09T15:17:54;27.20;99.90
44037;DHT22;62488;-37.670;-63.532;2023-04-09T15:20:21;27.60;99.90
44037;DHT22;62488;-37.670;-63.532;2023-04-09T15:22:48;27.50;99.90
44037;DHT22;62488;-37.670;-63.532;2023-04-09T15:25:15;27.10;99.90
44037;DHT22;62488;-37.670;-63.532;2023-04-09T15:27:42;27.10;99.90
44037;DHT22;62488;-37.670;-63.532;2023-04-09T15:30:11;26.80;99.90
44037;DHT22;62488;-37.670;-63.532;2023-04-09T15:32:38;26.80;99.90
44037;DHT22;62488;-37.670;-63.532;2023-04-09T15:35:05;27.10;99.90
44037;DHT22;62488;-37.670;-63.532;2023-04-09T15:37:33;27.70;99.90
44037;DHT22;62488;-37.670;-63.532;2023-04-09T15:40:00;27.90;99.90